Time;durP1;ratioP1;P1;durP2;ratioP2;P2;SDS_P1;SDS_P2;PMS_P1;PMS_P2;Temp;Humidity;BMP_temperature;BMP_pressure;BME280_temperature;BME280_humidity;BME280_pressure;Samples;Min_cycle;Max_cycle;Signal;HPM_P1;HPM_P2
2023/06/07 00:01:06;;;;;;;16.08;5.22;;;18.80;93.10;;;;;;5004949;28;20148;-82
2023/06/07 00:03:33;;;;;;;9.90;5.80;;;18.80;93.20;;;;;;5004139;28;20139;-81
2023/06/07 00:06:00;;;;;;;14.15;5.80;;;18.80;93.20;;;;;;5010535;28;20595;-80
2023/06/07 00:08:27;;;;;;;11.23;5.55;;;18.70;93.40;;;;;;5013933;28;20045;-80
2023/06/07 00:10:53;;;;;;;13.10;5.72;;;18.70;93.50;;;;;;5013387;28;20022;-80
2023/06/07 00:13:18;;;;;;;12.40;5.43;;;18.70;93.60;;;;;;5009711;28;20527;-80
2023/06/07 00:15:44;;;;;;;11.35;5.43;;;18.60;93.60;;;;;;5014137;28;20033;-80
2023/06/07 00:18:10;;;;;;;12.95;5.53;;;18.70;93.80;;;;;;5015396;28;20041;-80
2023/06/07 00:20:35;;;;;;;15.35;6.15;;;18.60;93.90;;;;;;5018149;28;20045;-80
2023/06/07 00:23:04;;;;;;;14.95;5.93;;;18.60;94.00;;;;;;5018317;28;20596;-80
2023/06/07 00:25:30;;;;;;;17.42;5.28;;;18.50;94.10;;;;;;5011390;28;20064;-80
2023/06/07 00:27:56;;;;;;;15.13;5.55;;;18.50;94.20;;;;;;5007846;28;20528;-81
2023/06/07 00:30:21;;;;;;;9.95;5.43;;;18.60;94.40;;;;;;5012312;28;20093;-80
2023/06/07 00:32:47;;;;;;;20.85;6.45;;;18.50;94.40;;;;;;5010853;28;20069;-81
2023/06/07 00:35:13;;;;;;;15.75;5.88;;;18.40;94.60;;;;;;5009957;28;20010;-80
2023/06/07 00:37:39;;;;;;;10.45;5.65;;;18.50;94.70;;;;;;5013233;28;20042;-80
2023/06/07 00:40:05;;;;;;;12.93;5.50;;;18.40;94.90;;;;;;5018271;28;20026;-80
2023/06/07 00:42:34;;;;;;;11.05;6.00;;;18.30;95.20;;;;;;5009680;28;20141;-80
2023/06/07 00:45:00;;;;;;;20.42;6.32;;;18.30;95.30;;;;;;5010978;28;20411;-80
2023/06/07 00:47:26;;;;;;;13.88;5.65;;;18.30;95.20;;;;;;5011102;28;20033;-80
2023/06/07 00:49:53;;;;;;;12.98;5.65;;;18.30;95.40;;;;;;5013922;28;20222;-80
2023/06/07 00:52:19;;;;;;;12.43;5.60;;;18.20;95.50;;;;;;5006094;28;20528;-80
2023/06/07 00:54:46;;;;;;;13.82;6.03;;;18.20;95.60;;;;;;5008372;28;20493;-80
2023/06/07 00:57:13;;;;;;;10.10;5.80;;;18.10;95.90;;;;;;5012326;28;20142;-80
2023/06/07 00:59:39;;;;;;;13.70;5.60;;;18.20;95.90;;;;;;5007828;28;20014;-79
2023/06/07 01:02:06;;;;;;;18.35;6.18;;;18.10;96.00;;;;;;5009016;28;20076;-80
2023/06/07 01:04:34;;;;;;;14.27;6.03;;;18.10;96.10;;;;;;5012986;28;20079;-79
2023/06/07 01:07:02;;;;;;;13.23;6.13;;;18.10;96.30;;;;;;5009893;28;20069;-80
2023/06/07 01:09:28;;;;;;;11.00;5.68;;;18.00;96.40;;;;;;5012201;28;20617;-80
2023/06/07 01:11:56;;;;;;;19.67;6.25;;;18.00;96.60;;;;;;5010665;28;20022;-80
2023/06/07 01:14:26;;;;;;;18.92;5.72;;;18.00;96.60;;;;;;5009383;28;20152;-80
2023/06/07 01:16:53;;;;;;;21.05;6.47;;;18.00;96.60;;;;;;5008798;28;20129;-80
2023/06/07 01:19:23;;;;;;;15.57;6.07;;;18.00;96.80;;;;;;5009129;28;20029;-80
2023/06/07 01:21:58;;;;;;;13.02;5.72;;;18.00;97.10;;;;;;5021776;28;20036;-80
2023/06/07 01:24:24;;;;;;;13.23;6.10;;;17.90;97.60;;;;;;5003579;28;20030;-79
2023/06/07 01:26:56;;;;;;;13.77;6.65;;;17.90;97.20;;;;;;5008273;28;20030;-80
2023/06/07 01:29:24;;;;;;;;;;;17.90;97.30;;;;;;5012791;28;20025;-80
2023/06/07 01:31:54;;;;;;;10.00;5.30;;;17.80;97.50;;;;;;5009576;28;20088;-79
2023/06/07 01:34:21;;;;;;;14.80;6.07;;;17.70;97.70;;;;;;5008228;28;20045;-80
2023/06/07 01:36:50;;;;;;;17.45;6.50;;;17.70;97.80;;;;;;5009971;28;20316;-80
2023/06/07 01:39:18;;;;;;;14.60;6.55;;;17.60;98.10;;;;;;5006634;28;20041;-80
2023/06/07 01:41:45;;;;;;;11.43;6.05;;;17.60;98.20;;;;;;5013839;28;20125;-80
2023/06/07 01:44:13;;;;;;;16.10;6.63;;;17.60;98.30;;;;;;5009086;28;20030;-80
2023/06/07 01:46:41;;;;;;;19.92;6.93;;;17.60;98.30;;;;;;5013760;28;20080;-80
2023/06/07 01:49:08;;;;;;;23.05;7.68;;;17.60;98.30;;;;;;5006414;28;20022;-80
2023/06/07 01:51:35;;;;;;;16.98;6.55;;;17.70;98.30;;;;;;5013704;28;20057;-81
2023/06/07 01:54:01;;;;;;;13.57;6.05;;;17.50;98.70;;;;;;5013849;28;20021;-81
2023/06/07 01:56:51;;;;;;;12.02;6.00;;;17.50;98.70;;;;;;5012413;28;20030;-81
2023/06/07 01:59:36;;;;;;;11.85;6.20;;;17.60;98.70;;;;;;5012893;28;20052;-79
2023/06/07 02:02:01;;;;;;;11.98;6.28;;;17.60;98.90;;;;;;5010434;28;20037;-80
2023/06/07 02:04:30;;;;;;;13.35;6.63;;;17.50;98.80;;;;;;5009599;28;20017;-81
2023/06/07 02:07:02;;;;;;;18.75;6.43;;;17.50;99.00;;;;;;5012576;28;20520;-81
2023/06/07 02:09:29;;;;;;;15.43;7.25;;;17.40;99.30;;;;;;5010902;28;20014;-81
2023/06/07 02:11:55;;;;;;;15.73;6.65;;;17.40;99.40;;;;;;5012488;28;20044;-81
2023/06/07 02:14:21;;;;;;;14.38;7.05;;;17.40;99.30;;;;;;5008153;28;20483;-81
2023/06/07 02:16:48;;;;;;;12.52;6.65;;;17.40;99.60;;;;;;5012065;28;20045;-80
2023/06/07 02:19:16;;;;;;;14.32;6.30;;;17.30;99.80;;;;;;5006613;28;20018;-81
2023/06/07 02:21:42;;;;;;;12.60;6.70;;;17.40;99.80;;;;;;5006112;28;20025;-81
2023/06/07 02:24:07;;;;;;;22.40;6.88;;;17.30;99.90;;;;;;5011545;28;20030;-80
2023/06/07 02:26:33;;;;;;;19.83;7.50;;;17.30;99.90;;;;;;5005822;28;20028;-81
2023/06/07 02:28:59;;;;;;;15.00;7.57;;;17.30;99.90;;;;;;5009524;28;20161;-81
2023/06/07 02:31:26;;;;;;;13.63;6.55;;;17.30;99.90;;;;;;5008071;28;20555;-81
2023/06/07 02:33:52;;;;;;;16.83;7.80;;;17.30;99.90;;;;;;5014430;28;20112;-81
2023/06/07 02:36:21;;;;;;;18.38;7.20;;;17.20;99.90;;;;;;5010432;28;20338;-81
2023/06/07 02:38:47;;;;;;;13.90;7.05;;;17.20;99.90;;;;;;5010289;28;20029;-81
2023/06/07 02:41:13;;;;;;;14.60;6.70;;;17.10;99.90;;;;;;5012296;28;20052;-81
2023/06/07 02:43:38;;;;;;;14.02;6.70;;;17.00;99.90;;;;;;5011279;28;20559;-81
2023/06/07 02:46:04;;;;;;;18.02;7.75;;;17.00;99.90;;;;;;5008029;28;20033;-82
2023/06/07 02:48:30;;;;;;;14.60;7.30;;;16.90;99.90;;;;;;5009375;28;20053;-81
2023/06/07 02:50:55;;;;;;;19.08;7.50;;;16.90;99.90;;;;;;5005211;28;20021;-81
2023/06/07 02:53:21;;;;;;;17.48;7.70;;;16.80;99.90;;;;;;5008447;28;20404;-81
2023/06/07 02:55:46;;;;;;;22.45;7.25;;;16.70;99.90;;;;;;5010420;28;20025;-81
2023/06/07 02:58:15;;;;;;;19.40;7.45;;;16.70;99.90;;;;;;5006828;28;20095;-81
2023/06/07 03:00:41;;;;;;;13.68;6.55;;;16.70;99.90;;;;;;5007167;28;20029;-81
2023/06/07 03:03:07;;;;;;;11.32;5.97;;;16.70;99.90;;;;;;5010564;28;20436;-80
2023/06/07 03:05:33;;;;;;;22.27;7.10;;;16.60;99.90;;;;;;5017623;28;20080;-81
2023/06/07 03:08:00;;;;;;;16.13;7.03;;;16.60;99.90;;;;;;5008804;28;20021;-81
2023/06/07 03:10:26;;;;;;;19.55;7.78;;;16.50;99.90;;;;;;5004330;28;20031;-81
2023/06/07 03:12:54;;;;;;;18.58;7.55;;;16.50;99.90;;;;;;5006194;28;20022;-81
2023/06/07 03:15:21;;;;;;;13.13;7.13;;;16.50;99.90;;;;;;5011810;28;20033;-81
2023/06/07 03:17:47;;;;;;;16.50;7.15;;;16.40;99.90;;;;;;5013070;28;20096;-81
2023/06/07 03:20:13;;;;;;;14.85;7.32;;;16.40;99.90;;;;;;5008854;28;20041;-80
2023/06/07 03:22:38;;;;;;;21.13;7.72;;;16.40;99.90;;;;;;5012043;28;20349;-81
2023/06/07 03:25:04;;;;;;;17.77;7.38;;;16.40;99.90;;;;;;5006989;28;20480;-81
2023/06/07 03:27:32;;;;;;;16.13;7.50;;;16.40;99.90;;;;;;5010325;28;20384;-81
2023/06/07 03:29:59;;;;;;;25.17;7.43;;;16.40;99.90;;;;;;5001273;28;20091;-81
2023/06/07 03:32:25;;;;;;;12.88;7.32;;;16.30;99.90;;;;;;5006610;28;20030;-81
2023/06/07 03:34:51;;;;;;;14.07;7.88;;;16.10;99.90;;;;;;5009987;28;20084;-81
2023/06/07 03:37:16;;;;;;;21.38;7.53;;;16.10;99.90;;;;;;5008254;28;20056;-81
2023/06/07 03:39:42;;;;;;;20.67;7.50;;;16.00;99.90;;;;;;5012059;28;20022;-81
2023/06/07 03:42:10;;;;;;;18.08;7.03;;;16.10;99.90;;;;;;5014146;28;20079;-81
2023/06/07 03:44:35;;;;;;;18.52;7.68;;;16.00;99.90;;;;;;5011609;28;20032;-81
2023/06/07 03:47:01;;;;;;;20.42;8.15;;;15.90;99.90;;;;;;5007084;28;20401;-80
2023/06/07 03:49:27;;;;;;;16.75;8.20;;;16.00;99.90;;;;;;5010325;28;20021;-81
2023/06/07 03:51:53;;;;;;;13.50;7.82;;;16.00;99.90;;;;;;5007060;28;20529;-81
2023/06/07 03:54:19;;;;;;;16.25;7.40;;;16.00;99.90;;;;;;5007883;28;20427;-81
2023/06/07 03:56:45;;;;;;;18.75;7.70;;;16.00;99.90;;;;;;5007842;28;20441;-81
2023/06/07 03:59:12;;;;;;;22.50;8.68;;;15.90;99.90;;;;;;5009108;28;20028;-81
2023/06/07 04:01:38;;;;;;;18.60;7.68;;;16.00;99.90;;;;;;5014701;28;20137;-80
2023/06/07 04:04:05;;;;;;;17.65;7.88;;;16.00;99.90;;;;;;5007292;28;20787;-81
2023/06/07 04:06:31;;;;;;;20.48;8.20;;;16.00;99.90;;;;;;5008692;28;20021;-80
2023/06/07 04:08:57;;;;;;;16.08;8.20;;;16.10;99.90;;;;;;5006145;28;20410;-81
2023/06/07 04:11:24;;;;;;;23.77;8.73;;;16.00;99.90;;;;;;5013385;28;20061;-80
2023/06/07 04:13:50;;;;;;;17.17;7.25;;;15.90;99.90;;;;;;5007205;28;20034;-81
2023/06/07 04:16:15;;;;;;;14.73;7.32;;;15.90;99.90;;;;;;5008363;28;20145;-84
2023/06/07 04:18:41;;;;;;;20.63;8.40;;;15.90;99.90;;;;;;5010393;28;20105;-81
2023/06/07 04:21:07;;;;;;;21.17;6.88;;;16.00;99.90;;;;;;5014200;28;20026;-81
2023/06/07 04:23:33;;;;;;;14.95;8.63;;;15.80;99.90;;;;;;5010247;28;20080;-82
2023/06/07 04:26:04;;;;;;;13.05;6.95;;;15.70;99.90;;;;;;5005457;28;20753;-81
2023/06/07 04:28:34;;;;;;;19.02;7.28;;;15.70;99.90;;;;;;5008915;28;20037;-81
2023/06/07 04:31:02;;;;;;;15.15;7.32;;;15.90;99.90;;;;;;5006782;28;20565;-81
2023/06/07 04:33:27;;;;;;;23.85;8.40;;;15.90;99.90;;;;;;5011665;28;20348;-80
2023/06/07 04:36:01;;;;;;;17.45;7.72;;;16.00;99.90;;;;;;5005246;28;20026;-81
2023/06/07 04:38:29;;;;;;;21.52;7.35;;;16.10;99.90;;;;;;5003898;28;20037;-81
2023/06/07 04:41:00;;;;;;;17.05;7.18;;;16.10;99.90;;;;;;5004450;28;20117;-80
2023/06/07 04:43:26;;;;;;;19.30;7.50;;;16.10;99.90;;;;;;5010527;28;20017;-81
2023/06/07 04:45:55;;;;;;;19.63;7.10;;;16.10;99.90;;;;;;5006267;28;20131;-81
2023/06/07 04:48:25;;;;;;;17.80;6.80;;;16.20;99.90;;;;;;5007303;28;20041;-81
2023/06/07 04:50:51;;;;;;;17.25;7.70;;;16.30;99.90;;;;;;5006647;28;20018;-80
2023/06/07 04:53:19;;;;;;;19.73;7.20;;;16.20;99.90;;;;;;5001961;28;20069;-84
2023/06/07 04:55:48;;;;;;;22.40;6.95;;;16.20;99.90;;;;;;5010551;28;20103;-84
2023/06/07 04:58:18;;;;;;;18.73;7.10;;;16.30;99.90;;;;;;5006643;28;20227;-84
2023/06/07 05:00:44;;;;;;;22.67;7.63;;;16.20;99.90;;;;;;5013688;28;20087;-83
2023/06/07 05:03:13;;;;;;;21.15;8.05;;;16.20;99.90;;;;;;5017950;28;20017;-84
2023/06/07 05:05:40;;;;;;;20.20;7.00;;;16.20;99.90;;;;;;5014616;28;20048;-83
2023/06/07 05:08:06;;;;;;;14.02;7.28;;;16.20;99.90;;;;;;5012476;28;20022;-83
2023/06/07 05:10:31;;;;;;;19.05;7.40;;;16.30;99.90;;;;;;5019222;28;20079;-83
2023/06/07 05:12:57;;;;;;;18.40;7.32;;;16.20;99.90;;;;;;5013764;28;20518;-83
2023/06/07 05:15:28;;;;;;;21.27;8.10;;;16.20;99.90;;;;;;5017498;28;20048;-85
2023/06/07 05:17:54;;;;;;;21.90;8.10;;;16.20;99.90;;;;;;5010144;28;20076;-84
2023/06/07 05:20:20;;;;;;;14.02;7.38;;;16.20;99.90;;;;;;5010885;28;20462;-84
2023/06/07 05:22:46;;;;;;;15.30;7.75;;;16.20;99.90;;;;;;5014733;28;20018;-84
2023/06/07 05:25:12;;;;;;;19.95;8.30;;;16.30;99.90;;;;;;5008910;28;20048;-85
2023/06/07 05:27:38;;;;;;;17.15;8.43;;;16.30;99.90;;;;;;5013885;28;20025;-85
2023/06/07 05:30:06;;;;;;;22.83;8.20;;;16.30;99.90;;;;;;5013497;28;20105;-85
2023/06/07 05:32:36;;;;;;;16.10;7.65;;;16.40;99.90;;;;;;5007984;28;20070;-85
2023/06/07 05:35:03;;;;;;;17.27;7.68;;;16.30;99.90;;;;;;5009753;28;20045;-84
2023/06/07 05:37:32;;;;;;;16.98;7.63;;;16.40;99.90;;;;;;5012221;28;20124;-86
2023/06/07 05:39:58;;;;;;;17.60;7.88;;;16.40;99.90;;;;;;5008843;28;20088;-81
2023/06/07 05:42:26;;;;;;;16.13;7.63;;;16.40;99.90;;;;;;5008672;28;20038;-81
2023/06/07 05:44:54;;;;;;;19.83;7.63;;;16.40;99.90;;;;;;5008903;28;20017;-81
2023/06/07 05:47:20;;;;;;;14.55;7.28;;;16.40;99.90;;;;;;5014245;28;20485;-81
2023/06/07 05:49:47;;;;;;;19.55;8.40;;;16.40;99.90;;;;;;5009793;28;20084;-80
2023/06/07 05:52:13;;;;;;;19.58;8.20;;;16.40;99.90;;;;;;5014617;28;20482;-80
2023/06/07 05:54:40;;;;;;;15.93;7.65;;;16.50;99.90;;;;;;5012226;28;20609;-81
2023/06/07 05:57:06;;;;;;;19.02;7.70;;;16.50;99.90;;;;;;5010142;28;20782;-80
2023/06/07 05:59:32;;;;;;;18.25;8.15;;;16.60;99.90;;;;;;5011600;28;20488;-81
2023/06/07 06:01:58;;;;;;;24.27;8.32;;;16.60;99.90;;;;;;5013861;28;20033;-81
2023/06/07 06:04:24;;;;;;;14.13;7.45;;;16.60;99.90;;;;;;5010096;28;20390;-81
2023/06/07 06:06:50;;;;;;;20.33;7.57;;;16.50;99.90;;;;;;5012683;28;20025;-81
2023/06/07 06:09:17;;;;;;;19.52;8.02;;;16.60;99.90;;;;;;5011657;28;20037;-81
2023/06/07 06:11:42;;;;;;;20.60;8.43;;;16.70;99.90;;;;;;5008483;28;20022;-81
2023/06/07 06:14:08;;;;;;;15.93;7.32;;;17.00;99.90;;;;;;5017503;28;20084;-80
2023/06/07 06:16:34;;;;;;;21.23;8.68;;;17.20;99.90;;;;;;5021518;28;20025;-81
2023/06/07 06:19:00;;;;;;;23.67;8.32;;;17.30;99.90;;;;;;5007651;28;20032;-80
2023/06/07 06:21:26;;;;;;;17.08;8.43;;;17.30;99.90;;;;;;5018059;28;20751;-80
2023/06/07 06:23:51;;;;;;;16.70;8.65;;;17.40;99.90;;;;;;5010066;28;20110;-81
2023/06/07 06:26:17;;;;;;;20.05;8.82;;;17.60;99.90;;;;;;5014762;28;20545;-81
2023/06/07 06:28:43;;;;;;;31.38;8.32;;;17.50;99.90;;;;;;5010890;28;20034;-81
2023/06/07 06:31:11;;;;;;;20.48;8.43;;;17.50;99.90;;;;;;5011646;28;20025;-80
2023/06/07 06:33:36;;;;;;;21.15;8.02;;;17.60;99.90;;;;;;5014202;28;20029;-80
2023/06/07 06:36:02;;;;;;;19.15;8.50;;;17.80;99.90;;;;;;5011094;28;20030;-80
2023/06/07 06:38:28;;;;;;;19.88;8.55;;;17.90;99.90;;;;;;5009483;28;20139;-80
2023/06/07 06:40:53;;;;;;;19.77;7.50;;;18.00;99.90;;;;;;5021287;28;20060;-80
2023/06/07 06:43:21;;;;;;;15.60;8.00;;;18.00;99.90;;;;;;5016704;28;20269;-80
2023/06/07 06:45:47;;;;;;;17.63;7.78;;;17.90;99.90;;;;;;5009291;28;20026;-80
2023/06/07 06:48:12;;;;;;;24.13;7.68;;;18.10;99.90;;;;;;5015602;28;20029;-80
2023/06/07 06:50:38;;;;;;;17.40;7.93;;;18.10;99.90;;;;;;5008660;28;20500;-79
2023/06/07 06:53:04;;;;;;;18.70;7.43;;;18.20;99.90;;;;;;5011101;28;20405;-81
2023/06/07 06:55:31;;;;;;;16.48;7.45;;;18.30;99.90;;;;;;5015384;28;20104;-80
2023/06/07 06:57:56;;;;;;;25.30;7.47;;;18.40;99.80;;;;;;5015522;28;20546;-81
2023/06/07 07:00:23;;;;;;;19.83;7.70;;;18.30;99.60;;;;;;5017790;28;20033;-81
2023/06/07 07:02:49;;;;;;;17.38;7.90;;;18.50;99.50;;;;;;5016488;28;20034;-88
2023/06/07 07:05:19;;;;;;;23.77;7.80;;;18.60;99.10;;;;;;5013656;28;20401;-90
2023/06/07 07:07:45;;;;;;;19.85;7.90;;;18.70;98.80;;;;;;5010293;28;20418;-89
2023/06/07 07:10:12;;;;;;;13.88;7.38;;;18.70;98.80;;;;;;5016167;28;20769;-88
2023/06/07 07:12:38;;;;;;;16.23;7.30;;;18.90;98.60;;;;;;5010969;28;20025;-86
2023/06/07 07:15:05;;;;;;;17.33;8.13;;;18.90;98.20;;;;;;5016961;28;20033;-93
2023/06/07 07:17:31;;;;;;;14.20;7.65;;;18.70;98.70;;;;;;5021745;28;20121;-92
2023/06/07 07:19:56;;;;;;;17.08;7.40;;;18.60;98.80;;;;;;5025043;28;20053;-91
2023/06/07 07:22:22;;;;;;;17.70;7.47;;;18.50;99.20;;;;;;5034042;28;20032;-90
2023/06/07 07:24:48;;;;;;;19.63;8.10;;;18.30;99.40;;;;;;5021714;28;20029;-85
2023/06/07 07:27:14;;;;;;;17.40;7.07;;;18.30;99.40;;;;;;5025968;28;20051;-89
2023/06/07 07:29:42;;;;;;;17.05;7.70;;;18.30;99.20;;;;;;5022502;28;20037;-84
2023/06/07 07:32:08;;;;;;;22.42;7.95;;;18.20;99.50;;;;;;5013742;28;20026;-83
2023/06/07 07:34:33;;;;;;;13.75;7.35;;;18.00;99.10;;;;;;5014107;28;20180;-86
2023/06/07 07:37:02;;;;;;;25.17;8.25;;;18.00;99.20;;;;;;5010195;28;20132;-88
2023/06/07 07:39:31;;;;;;;17.23;7.80;;;18.10;99.90;;;;;;5010899;28;20320;-86
2023/06/07 07:41:57;;;;;;;25.52;8.13;;;18.00;99.90;;;;;;5016739;28;20022;-83
2023/06/07 07:44:23;;;;;;;23.20;8.02;;;18.00;99.90;;;;;;5007555;28;20029;-84
2023/06/07 07:46:49;;;;;;;20.73;9.50;;;17.90;99.90;;;;;;4960633;28;1575160;-85
2023/06/07 07:49:17;;;;;;;19.95;8.55;;;18.00;99.90;;;;;;5018737;28;20111;-88
2023/06/07 07:51:43;;;;;;;18.48;8.00;;;18.00;99.90;;;;;;5021922;28;20022;-83
2023/06/07 07:54:10;;;;;;;21.08;7.47;;;18.00;99.90;;;;;;5017719;28;20135;-84
2023/06/07 07:56:36;;;;;;;20.85;7.88;;;17.90;99.90;;;;;;5012902;28;20026;-85
2023/06/07 07:59:02;;;;;;;18.70;7.68;;;17.90;99.90;;;;;;5015402;28;20029;-89
2023/06/07 08:01:28;;;;;;;17.20;7.40;;;17.80;99.90;;;;;;5017565;28;20022;-89
2023/06/07 08:03:54;;;;;;;19.67;8.75;;;17.80;99.90;;;;;;5015181;28;20028;-85
2023/06/07 08:06:20;;;;;;;22.40;7.72;;;17.80;99.90;;;;;;5011004;28;20500;-88
2023/06/07 08:08:48;;;;;;;21.00;7.55;;;17.80;99.90;;;;;;5019539;28;20033;-88
2023/06/07 08:11:14;;;;;;;18.25;7.95;;;17.80;99.90;;;;;;5025523;28;20388;-83
2023/06/07 08:13:40;;;;;;;19.05;8.30;;;17.80;99.90;;;;;;5017148;28;20030;-89
2023/06/07 08:16:05;;;;;;;17.35;7.60;;;17.90;99.90;;;;;;5017875;28;20025;-85
2023/06/07 08:18:33;;;;;;;18.33;8.02;;;18.00;99.90;;;;;;5012381;28;20125;-84
2023/06/07 08:20:59;;;;;;;20.63;8.23;;;18.20;99.90;;;;;;5017091;28;20025;-90
2023/06/07 08:23:27;;;;;;;18.52;7.10;;;18.20;99.90;;;;;;5024116;28;20037;-87
2023/06/07 08:25:53;;;;;;;18.23;7.47;;;18.20;99.90;;;;;;5002319;28;20025;-82
2023/06/07 08:28:18;;;;;;;23.27;8.48;;;18.20;99.90;;;;;;5008122;28;20053;-81
2023/06/07 08:30:49;;;;;;;16.58;7.57;;;18.20;99.90;;;;;;5013162;28;20554;-91
2023/06/07 08:33:17;;;;;;;21.20;7.78;;;18.20;99.90;;;;;;5019106;28;20053;-91
2023/06/07 08:35:42;;;;;;;18.80;8.52;;;18.40;99.90;;;;;;5024205;28;20604;-85
2023/06/07 08:38:08;;;;;;;18.25;8.15;;;18.30;99.90;;;;;;5037521;28;20036;-88
2023/06/07 08:40:45;;;;;;;15.82;7.72;;;18.30;99.90;;;;;;5035790;28;20049;-90
2023/06/07 08:43:19;;;;;;;17.65;7.88;;;18.40;99.90;;;;;;5020037;28;20026;-90
2023/06/07 08:45:45;;;;;;;20.65;8.02;;;18.50;99.90;;;;;;5015542;28;20070;-84
2023/06/07 08:48:12;;;;;;;24.13;8.85;;;18.50;99.90;;;;;;5036691;28;20022;-85
2023/06/07 08:50:38;;;;;;;22.02;9.23;;;18.70;99.90;;;;;;5018178;28;20057;-85
2023/06/07 08:53:12;;;;;;;155.50;54.65;;;18.60;99.90;;;;;;5015818;28;20057;-84
2023/06/07 08:55:38;;;;;;;17.10;8.60;;;18.70;99.90;;;;;;5024675;28;20040;-90
2023/06/07 08:58:06;;;;;;;20.92;7.38;;;18.80;99.90;;;;;;5024867;28;20144;-91
2023/06/07 09:00:33;;;;;;;21.60;8.15;;;18.80;99.90;;;;;;5022413;28;20022;-94
2023/06/07 09:02:58;;;;;;;16.23;7.93;;;18.90;99.90;;;;;;5022040;28;20642;-86
2023/06/07 09:05:24;;;;;;;19.80;7.85;;;19.00;99.90;;;;;;5011118;28;20053;-84
2023/06/07 09:07:53;;;;;;;18.60;8.48;;;19.10;99.90;;;;;;5013825;28;20083;-84
2023/06/07 09:10:21;;;;;;;15.52;7.43;;;19.00;99.90;;;;;;5016315;28;20057;-81
2023/06/07 09:12:50;;;;;;;26.58;8.93;;;19.10;99.90;;;;;;5015389;28;20378;-84
2023/06/07 09:15:18;;;;;;;18.48;7.85;;;19.20;99.90;;;;;;5010363;28;20030;-87
2023/06/07 09:17:54;;;;;;;19.98;8.77;;;19.20;99.90;;;;;;5015953;28;20042;-84
2023/06/07 09:20:27;;;;;;;21.40;9.07;;;19.10;99.90;;;;;;5014460;28;20033;-86
2023/06/07 09:23:09;;;;;;;14.90;8.07;;;19.30;99.90;;;;;;5012700;28;20104;-83
2023/06/07 09:25:37;;;;;;;25.85;8.68;;;19.30;99.90;;;;;;5033106;28;20469;-87
2023/06/07 09:28:08;;;;;;;21.17;7.63;;;19.30;99.90;;;;;;5039984;28;20013;-87
2023/06/07 09:30:55;;;;;;;18.30;7.30;;;19.20;99.90;;;;;;5032968;28;20337;-95
2023/06/07 09:33:33;;;;;;;20.50;8.02;;;19.30;99.90;;;;;;5015434;28;20029;-84
2023/06/07 09:36:06;;;;;;;22.58;8.23;;;19.20;99.90;;;;;;5012660;28;20035;-81
2023/06/07 09:38:33;;;;;;;17.95;7.95;;;19.10;99.90;;;;;;5006289;28;20038;-85
2023/06/07 09:41:00;;;;;;;33.55;14.60;;;19.20;99.90;;;;;;5010344;28;20061;-81
2023/06/07 09:43:26;;;;;;;20.25;7.63;;;19.30;99.90;;;;;;5015189;28;20018;-82
2023/06/07 09:45:56;;;;;;;16.48;8.05;;;19.40;99.90;;;;;;5008047;28;20037;-81
2023/06/07 09:48:22;;;;;;;20.30;8.18;;;19.60;99.90;;;;;;5011052;28;20048;-90
2023/06/07 09:51:02;;;;;;;19.50;8.30;;;19.80;99.90;;;;;;5013003;28;20284;-83
2023/06/07 09:53:29;;;;;;;18.52;7.57;;;19.90;99.90;;;;;;5008816;28;20036;-82
2023/06/07 09:55:54;;;;;;;20.67;8.75;;;20.20;99.90;;;;;;5008775;28;20658;-84
2023/06/07 09:58:22;;;;;;;17.23;7.80;;;20.40;99.90;;;;;;5010495;28;20041;-84
2023/06/07 10:00:48;;;;;;;21.95;8.68;;;20.50;99.90;;;;;;5011639;28;20099;-81
2023/06/07 10:03:15;;;;;;;23.25;8.18;;;20.40;99.20;;;;;;5013761;28;20041;-82
2023/06/07 10:05:45;;;;;;;20.48;8.35;;;20.40;99.20;;;;;;5012055;28;20037;-87
2023/06/07 10:08:11;;;;;;;21.23;8.13;;;20.40;98.90;;;;;;5008567;28;20538;-82
2023/06/07 10:10:40;;;;;;;22.55;8.35;;;20.50;98.90;;;;;;5009885;28;20584;-82
2023/06/07 10:13:08;;;;;;;21.20;7.18;;;20.60;98.70;;;;;;5009347;28;20033;-82
2023/06/07 10:15:37;;;;;;;24.25;8.05;;;20.60;98.30;;;;;;5003757;28;20743;-82
2023/06/07 10:18:15;;;;;;;30.80;8.43;;;20.80;98.20;;;;;;5007803;28;20033;-83
2023/06/07 10:21:00;;;;;;;18.17;7.70;;;20.90;98.10;;;;;;5006359;28;20030;-81
2023/06/07 10:23:39;;;;;;;29.55;8.80;;;20.80;98.10;;;;;;5007149;28;20021;-81
2023/06/07 10:26:18;;;;;;;24.95;8.52;;;21.10;97.70;;;;;;5000076;28;20093;-81
2023/06/07 10:28:50;;;;;;;22.77;8.27;;;21.30;97.60;;;;;;5010483;28;20048;-83
2023/06/07 10:31:16;;;;;;;20.63;7.88;;;21.60;96.90;;;;;;5013034;28;20028;-80
2023/06/07 10:33:43;;;;;;;22.50;8.75;;;22.00;96.30;;;;;;5015341;28;20025;-82
2023/06/07 10:36:10;;;;;;;34.38;12.98;;;22.20;95.50;;;;;;5019553;28;20064;-84
2023/06/07 10:38:36;;;;;;;39.05;17.02;;;22.10;95.20;;;;;;5016483;28;20037;-80
2023/06/07 10:41:08;;;;;;;16.80;8.38;;;22.30;94.80;;;;;;5010231;28;20032;-77
2023/06/07 10:43:34;;;;;;;143.85;56.00;;;22.20;95.00;;;;;;5012659;28;20044;-76
2023/06/07 10:46:23;;;;;;;17.60;8.55;;;22.40;95.00;;;;;;5004639;28;20030;-80
2023/06/07 10:48:53;;;;;;;19.15;7.95;;;22.60;94.80;;;;;;5013869;28;20553;-94
2023/06/07 10:51:41;;;;;;;20.38;9.27;;;22.90;94.30;;;;;;5021799;28;20037;-87
2023/06/07 10:54:07;;;;;;;19.60;8.00;;;22.90;93.30;;;;;;4988978;28;20034;-82
2023/06/07 10:56:37;;;;;;;19.08;8.00;;;23.10;93.30;;;;;;4990776;28;20030;-87
2023/06/07 10:59:15;;;;;;;19.10;8.55;;;23.20;93.00;;;;;;4993672;28;20076;-82
2023/06/07 11:01:43;;;;;;;14.43;8.27;;;23.40;92.80;;;;;;4991399;28;20038;-82
2023/06/07 11:04:39;;;;;;;19.50;8.55;;;23.70;92.10;;;;;;4987416;28;20080;-83
2023/06/07 11:07:41;;;;;;;19.65;8.15;;;24.00;91.70;;;;;;4979206;28;20041;-86
2023/06/07 11:10:09;;;;;;;17.55;8.27;;;24.10;91.00;;;;;;4982050;28;20554;-84
2023/06/07 11:12:40;;;;;;;18.80;8.55;;;24.30;91.30;;;;;;4991161;28;20122;-80
2023/06/07 11:15:20;;;;;;;22.08;8.38;;;24.40;90.80;;;;;;4993414;28;20034;-88
2023/06/07 11:17:53;;;;;;;18.38;8.32;;;24.60;90.30;;;;;;4986231;28;20042;-80
2023/06/07 11:20:40;;;;;;;16.80;7.80;;;24.90;90.10;;;;;;4989761;28;20041;-80
2023/06/07 11:23:25;;;;;;;17.08;8.40;;;25.50;89.00;;;;;;4990309;28;20037;-80
2023/06/07 11:26:06;;;;;;;14.02;8.60;;;25.70;87.80;;;;;;4999574;28;20087;-81
2023/06/07 11:28:34;;;;;;;17.48;8.45;;;25.70;87.10;;;;;;4989142;28;20097;-81
2023/06/07 11:31:01;;;;;;;23.58;9.57;;;26.00;85.10;;;;;;4991243;28;20025;-81
2023/06/07 11:33:30;;;;;;;15.10;8.65;;;26.60;84.90;;;;;;4990336;28;20026;-82
2023/06/07 11:35:58;;;;;;;22.30;8.75;;;27.10;82.60;;;;;;4987432;28;20050;-82
2023/06/07 11:38:26;;;;;;;25.15;8.68;;;27.50;80.30;;;;;;4990198;28;20073;-90
2023/06/07 11:40:54;;;;;;;17.00;9.02;;;28.00;79.00;;;;;;4986765;28;20375;-86
2023/06/07 11:43:24;;;;;;;30.35;18.15;;;28.40;76.50;;;;;;4991234;28;20044;-82
2023/06/07 11:45:50;;;;;;;19.20;9.40;;;28.30;75.50;;;;;;4989445;28;20125;-84
2023/06/07 11:48:16;;;;;;;21.02;9.00;;;28.20;78.00;;;;;;4988901;28;20026;-86
2023/06/07 11:50:45;;;;;;;19.45;9.10;;;28.30;76.90;;;;;;4997226;28;20026;-92
2023/06/07 11:53:15;;;;;;;19.65;8.80;;;28.40;74.40;;;;;;4994270;28;20032;-85
2023/06/07 11:55:41;;;;;;;17.23;9.25;;;28.20;74.60;;;;;;4986844;28;20124;-83
2023/06/07 11:58:07;;;;;;;13.23;8.02;;;28.20;75.50;;;;;;4996302;28;20825;-80
2023/06/07 12:00:37;;;;;;;14.90;8.27;;;28.50;74.00;;;;;;4986663;28;20541;-81
2023/06/07 12:03:05;;;;;;;17.50;8.90;;;28.50;73.10;;;;;;4992871;28;20390;-86
2023/06/07 12:05:34;;;;;;;18.30;8.98;;;28.60;73.50;;;;;;4984557;28;20046;-81
2023/06/07 12:08:04;;;;;;;20.08;8.80;;;28.80;72.10;;;;;;4982660;28;20046;-83
2023/06/07 12:10:31;;;;;;;19.13;9.10;;;28.20;73.10;;;;;;4988277;28;20113;-82
2023/06/07 12:13:09;;;;;;;17.95;8.93;;;27.60;74.90;;;;;;4989704;28;20037;-80
2023/06/07 12:15:41;;;;;;;21.02;8.77;;;27.00;76.20;;;;;;4990763;28;20757;-82
2023/06/07 12:18:14;;;;;;;19.42;8.45;;;26.70;77.20;;;;;;4990003;28;20128;-79
2023/06/07 12:20:41;;;;;;;13.60;7.50;;;26.70;77.00;;;;;;4992535;28;20699;-81
2023/06/07 12:23:07;;;;;;;22.05;8.70;;;27.00;77.30;;;;;;4991393;28;20524;-83
2023/06/07 12:25:34;;;;;;;12.38;8.20;;;27.00;76.30;;;;;;4988830;28;20022;-82
2023/06/07 12:28:06;;;;;;;14.82;7.95;;;27.00;76.40;;;;;;4994402;28;20030;-87
2023/06/07 12:30:37;;;;;;;15.93;8.13;;;27.20;75.70;;;;;;4997005;28;20040;-82
2023/06/07 12:33:03;;;;;;;20.90;9.32;;;26.70;76.40;;;;;;4989078;28;20140;-82
2023/06/07 12:35:39;;;;;;;15.35;8.48;;;26.50;77.10;;;;;;4987176;28;20029;-82
2023/06/07 12:38:06;;;;;;;18.55;8.13;;;26.70;76.70;;;;;;4993750;28;20040;-81
2023/06/07 12:40:32;;;;;;;15.07;7.07;;;27.20;77.20;;;;;;5001351;28;20125;-81